createdAt,value
2022-09-05T00:00:11.434Z,3.00
2022-09-05T00:02:54.538Z,4.70
2022-09-05T00:05:54.038Z,2.80
2022-09-05T00:08:38.714Z,3.87
2022-09-05T00:11:42.374Z,3.10
2022-09-05T00:14:15.350Z,3.23
2022-09-05T00:17:13.602Z,3.10
2022-09-05T00:24:22.000Z,3.97
2022-09-05T00:24:37.609Z,2.87
2022-09-05T00:25:57.829Z,3.53
2022-09-05T00:28:34.186Z,3.70
2022-09-05T00:31:53.563Z,2.90
2022-09-05T00:34:12.675Z,3.53
2022-09-05T00:36:46.728Z,3.77
2022-09-05T00:39:19.678Z,2.67
2022-09-05T00:41:50.562Z,2.60
2022-09-05T00:44:21.087Z,2.20
2022-09-05T00:46:56.768Z,4.07
2022-09-05T00:49:29.054Z,2.60
2022-09-05T00:52:03.251Z,4.07
2022-09-05T00:54:54.762Z,5.20
2022-09-05T00:57:43.611Z,3.83
2022-09-05T01:00:18.561Z,3.63
2022-09-05T01:03:10.036Z,3.07
2022-09-05T01:06:09.713Z,3.13
2022-09-05T01:08:50.780Z,4.53
2022-09-05T01:11:28.717Z,2.50
2022-09-05T01:14:02.931Z,2.23
2022-09-05T01:16:55.638Z,2.40
2022-09-05T01:19:31.924Z,2.40
2022-09-05T01:22:29.478Z,2.30
2022-09-05T01:25:14.251Z,2.63
2022-09-05T01:29:14.098Z,3.57
2022-09-05T01:30:51.562Z,3.80
2022-09-05T01:33:26.699Z,2.23
2022-09-05T01:36:08.766Z,2.73
2022-09-05T01:38:55.321Z,2.27
2022-09-05T01:41:42.373Z,2.83
2022-09-05T01:44:37.262Z,3.40
2022-09-05T01:47:25.547Z,2.10
2022-09-05T01:50:10.389Z,3.27
2022-09-05T01:53:06.227Z,2.30
2022-09-05T01:56:05.003Z,1.83
2022-09-05T01:58:53.379Z,2.10
2022-09-05T02:01:32.360Z,2.23
2022-09-05T02:04:24.202Z,7.90
2022-09-05T02:07:15.253Z,18.77
2022-09-05T02:10:07.307Z,3.80
2022-09-05T02:12:43.022Z,4.03
2022-09-05T02:15:18.159Z,3.33
2022-09-05T02:17:53.092Z,6.33
2022-09-05T02:20:25.501Z,4.73
2022-09-05T02:23:04.704Z,2.67
2022-09-05T02:26:02.330Z,2.40
2022-09-05T02:28:38.152Z,3.10
2022-09-05T02:31:19.849Z,2.30
2022-09-05T02:34:01.948Z,2.40
2022-09-05T02:36:36.112Z,1.97
2022-09-05T02:44:45.483Z,2.03
2022-09-05T02:45:13.046Z,6.07
2022-09-05T02:45:18.028Z,2.17
2022-09-05T02:47:53.322Z,16.17
2022-09-05T02:53:57.799Z,9.17
2022-09-05T02:57:26.385Z,4.03
2022-09-05T02:57:36.696Z,2.10
2022-09-05T02:59:40.114Z,3.73
2022-09-05T03:02:25.512Z,2.47
2022-09-05T03:05:04.854Z,3.07
2022-09-05T03:08:07.989Z,2.97
2022-09-05T03:11:28.076Z,2.40
2022-09-05T03:14:36.487Z,2.83
2022-09-05T03:17:45.442Z,7.27
2022-09-05T03:20:40.923Z,12.27
2022-09-05T03:23:49.105Z,6.90
2022-09-05T03:26:58.401Z,3.37
2022-09-05T03:29:39.351Z,5.10
2022-09-05T03:32:48.862Z,6.30
2022-09-05T03:35:53.983Z,8.00
2022-09-05T03:38:58.919Z,5.17
2022-09-05T03:41:40.573Z,4.13
2022-09-05T03:44:39.787Z,7.20
2022-09-05T03:47:29.693Z,23.10
2022-09-05T03:56:02.615Z,11.93
2022-09-05T03:57:20.406Z,3.40
2022-09-05T03:57:28.080Z,4.67
2022-09-05T03:59:58.300Z,3.03
2022-09-05T04:04:20.302Z,4.43
2022-09-05T04:08:18.933Z,3.57
2022-09-05T04:08:34.144Z,3.77
2022-09-05T04:11:06.879Z,3.97
2022-09-05T04:13:39.871Z,3.37
2022-09-05T04:16:14.497Z,2.93
2022-09-05T04:18:46.213Z,14.97
2022-09-05T04:21:18.155Z,5.00
2022-09-05T04:23:52.805Z,3.77
2022-09-05T04:26:28.397Z,2.17
2022-09-05T04:29:03.937Z,8.13
2022-09-05T04:31:40.935Z,5.43
2022-09-05T04:34:21.248Z,3.30
2022-09-05T04:37:00.903Z,2.03
2022-09-05T04:39:30.333Z,2.33
2022-09-05T04:42:07.357Z,2.50
2022-09-05T04:44:38.742Z,3.83
2022-09-05T04:47:14.852Z,7.03
2022-09-05T04:49:48.118Z,2.30
2022-09-05T04:52:45.456Z,2.57
2022-09-05T04:55:15.190Z,5.17
2022-09-05T04:57:48.955Z,3.17
2022-09-05T05:05:59.772Z,2.70
2022-09-05T05:06:13.504Z,3.77
2022-09-05T05:09:02.079Z,4.70
2022-09-05T05:18:00.143Z,3.03
2022-09-05T05:18:01.445Z,2.03
2022-09-05T05:18:16.390Z,3.17
2022-09-05T05:20:41.998Z,2.10
2022-09-05T05:23:14.576Z,5.23
2022-09-05T05:25:48.156Z,2.00
2022-09-05T05:28:24.701Z,2.13
2022-09-05T05:31:01.405Z,2.87
2022-09-05T05:33:33.542Z,2.27
2022-09-05T05:36:05.149Z,2.33
2022-09-05T05:38:40.347Z,2.23
2022-09-05T05:41:14.271Z,2.40
2022-09-05T05:43:46.625Z,3.93
2022-09-05T05:46:24.399Z,3.63
2022-09-05T05:48:57.394Z,2.97
2022-09-05T05:52:02.011Z,2.07
2022-09-05T05:54:32.319Z,2.20
2022-09-05T05:57:20.023Z,3.07
2022-09-05T06:00:08.271Z,3.55
2022-09-05T06:03:26.559Z,3.47
2022-09-05T06:06:18.553Z,3.10
2022-09-05T06:12:46.349Z,2.75
2022-09-05T06:14:55.799Z,5.10
2022-09-05T06:15:57.319Z,3.85
2022-09-05T06:18:59.463Z,3.60
2022-09-05T06:22:09.279Z,2.42
2022-09-05T06:25:28.642Z,2.45
2022-09-05T06:28:19.012Z,2.22
2022-09-05T06:30:57.273Z,3.30
2022-09-05T06:34:02.307Z,2.05
2022-09-05T06:36:45.775Z,3.10
2022-09-05T06:39:18.673Z,2.38
2022-09-05T06:42:05.230Z,2.15
2022-09-05T06:45:27.082Z,3.05
2022-09-05T06:48:06.019Z,1.90
2022-09-05T06:51:09.138Z,2.45
2022-09-05T06:53:55.990Z,2.70
2022-09-05T06:56:46.677Z,2.15
2022-09-05T06:59:53.762Z,2.15
2022-09-05T07:02:58.225Z,1.98
2022-09-05T07:05:39.902Z,2.20
2022-09-05T07:08:35.025Z,2.67
2022-09-05T07:11:15.008Z,2.40
2022-09-05T07:13:55.845Z,2.40
2022-09-05T07:16:38.324Z,2.47
2022-09-05T07:19:26.707Z,2.45
2022-09-05T07:22:48.890Z,2.30
2022-09-05T07:25:18.125Z,2.50
2022-09-05T07:28:28.725Z,2.60
2022-09-05T07:30:42.885Z,4.00
2022-09-05T07:33:12.425Z,3.22
2022-09-05T07:35:42.766Z,4.13
2022-09-05T07:38:15.849Z,3.90
2022-09-05T07:40:52.318Z,3.63
2022-09-05T07:43:23.946Z,2.40
2022-09-05T07:46:04.239Z,2.83
2022-09-05T07:48:35.863Z,2.38
2022-09-05T07:52:39.690Z,2.42
2022-09-05T07:57:10.787Z,3.75
2022-09-05T07:57:22.344Z,2.28
2022-09-05T07:59:41.407Z,3.20
2022-09-05T08:02:13.027Z,4.18
2022-09-05T08:04:43.040Z,3.38
2022-09-05T08:07:49.351Z,2.38
2022-09-05T08:10:10.603Z,2.90
2022-09-05T08:13:22.340Z,2.92
2022-09-05T08:15:38.332Z,2.70
2022-09-05T08:18:24.679Z,2.97
2022-09-05T08:20:56.626Z,3.00
2022-09-05T08:23:42.568Z,3.90
2022-09-05T08:26:13.166Z,3.28
2022-09-05T08:28:53.548Z,3.13
2022-09-05T08:31:24.436Z,3.40
2022-09-05T08:33:57.951Z,3.55
2022-09-05T08:36:31.455Z,3.35
2022-09-05T08:39:02.085Z,3.30
2022-09-05T08:41:50.250Z,2.72
2022-09-05T08:46:40.816Z,3.38
2022-09-05T08:47:25.811Z,3.60
2022-09-05T08:50:26.785Z,3.50
2022-09-05T08:53:28.989Z,3.80
2022-09-05T08:56:02.039Z,4.20
2022-09-05T08:59:27.948Z,4.82
2022-09-05T09:02:45.348Z,3.83
2022-09-05T09:05:01.504Z,4.22
2022-09-05T09:07:51.715Z,3.70
2022-09-05T09:10:38.053Z,4.20
2022-09-05T09:13:19.103Z,5.13
2022-09-05T09:15:50.700Z,4.07
2022-09-05T09:18:21.338Z,4.25
2022-09-05T09:20:53.201Z,4.43
2022-09-05T09:23:39.897Z,4.13
2022-09-05T09:26:15.737Z,4.40
2022-09-05T09:28:51.744Z,4.50
2022-09-05T09:31:30.265Z,3.80
2022-09-05T09:34:12.043Z,5.15
2022-09-05T09:37:03.955Z,3.60
2022-09-05T09:39:39.720Z,3.85
2022-09-05T09:42:33.781Z,3.90
2022-09-05T09:45:28.196Z,5.13
2022-09-05T09:48:17.685Z,5.40
2022-09-05T09:51:06.628Z,4.55
2022-09-05T09:53:45.110Z,5.38
2022-09-05T09:56:32.851Z,4.03
2022-09-05T09:59:26.064Z,3.95
2022-09-05T10:02:53.894Z,4.80
2022-09-05T10:10:40.167Z,4.03
2022-09-05T10:10:52.401Z,4.05
2022-09-05T10:11:53.863Z,3.97
2022-09-05T10:14:50.700Z,3.80
2022-09-05T10:17:55.203Z,3.85
2022-09-05T10:20:45.254Z,4.10
2022-09-05T10:23:38.626Z,5.72
2022-09-05T10:26:39.600Z,4.70
2022-09-05T10:29:36.866Z,4.40
2022-09-05T10:35:08.004Z,4.90
2022-09-05T10:35:09.427Z,5.38
2022-09-05T10:37:51.445Z,5.72
2022-09-05T10:40:23.355Z,4.70
2022-09-05T10:43:00.396Z,4.47
2022-09-05T10:45:38.763Z,5.07
2022-09-05T10:48:13.549Z,5.00
2022-09-05T10:50:45.849Z,4.38
2022-09-05T10:53:25.681Z,4.93
2022-09-05T10:56:05.642Z,4.60
2022-09-05T11:02:19.453Z,4.93
2022-09-05T11:02:30.287Z,5.10
2022-09-05T11:04:46.789Z,5.50
2022-09-05T11:07:29.263Z,4.95
2022-09-05T11:10:06.868Z,5.55
2022-09-05T11:12:59.943Z,5.35
2022-09-05T11:15:33.047Z,5.50
2022-09-05T11:18:04.628Z,5.00
2022-09-05T11:20:50.545Z,5.22
2022-09-05T11:23:22.793Z,5.22
2022-09-05T11:26:00.955Z,5.07
2022-09-05T11:28:38.938Z,5.00
2022-09-05T11:31:39.045Z,5.22
2022-09-05T11:39:54.097Z,5.05
2022-09-05T11:40:10.856Z,5.18
2022-09-05T11:41:04.064Z,5.32
2022-09-05T11:43:50.826Z,5.00
2022-09-05T11:46:30.051Z,4.88
2022-09-05T11:49:17.389Z,5.22
2022-09-05T11:52:24.855Z,4.90
2022-09-05T11:55:43.322Z,5.93
2022-09-05T11:58:45.158Z,4.82
2022-09-05T12:01:36.778Z,4.80
2022-09-05T12:04:46.362Z,5.18
2022-09-05T12:07:44.798Z,5.18
2022-09-05T12:10:46.475Z,5.00
2022-09-05T12:13:38.370Z,5.47
2022-09-05T12:16:26.451Z,4.93
2022-09-05T12:19:18.732Z,4.80
2022-09-05T12:22:08.679Z,4.60
2022-09-05T12:26:04.382Z,4.45
2022-09-05T12:29:26.366Z,4.40
2022-09-05T12:32:37.738Z,4.75
2022-09-05T12:36:05.995Z,4.50
2022-09-05T12:40:27.654Z,4.53
2022-09-05T12:41:42.574Z,4.53
2022-09-05T12:42:54.615Z,4.30
2022-09-05T12:45:37.488Z,4.78
2022-09-05T12:48:13.326Z,4.22
2022-09-05T12:50:52.032Z,4.20
2022-09-05T12:53:21.855Z,4.00
2022-09-05T12:56:47.976Z,8.73
2022-09-05T13:03:00.953Z,4.05
2022-09-05T13:03:07.758Z,26.38
2022-09-05T13:04:32.202Z,4.40
2022-09-05T13:07:05.691Z,4.00
2022-09-05T13:09:58.245Z,3.75
2022-09-05T13:14:53.290Z,3.90
2022-09-05T13:15:24.238Z,4.20
2022-09-05T13:17:59.252Z,4.20
2022-09-05T13:20:34.887Z,4.07
2022-09-05T13:23:11.387Z,5.82
2022-09-05T13:25:43.486Z,3.80
2022-09-05T13:28:15.631Z,7.00
2022-09-05T13:34:58.591Z,6.45
2022-09-05T13:38:03.701Z,6.13
2022-09-05T13:38:19.073Z,6.68
2022-09-05T13:39:28.803Z,5.03
2022-09-05T13:42:03.542Z,4.85
2022-09-05T13:44:38.131Z,15.73
2022-09-05T13:47:29.784Z,9.57
2022-09-05T13:50:17.423Z,10.30
2022-09-05T13:52:51.624Z,7.07
2022-09-05T13:55:24.054Z,6.05
2022-09-05T13:57:56.492Z,5.32
2022-09-05T14:01:01.102Z,5.55
2022-09-05T14:05:05.210Z,5.03
2022-09-05T14:07:46.579Z,4.72
2022-09-05T14:10:45.821Z,6.03
2022-09-05T14:13:17.517Z,5.90
2022-09-05T14:15:52.439Z,6.03
2022-09-05T14:18:24.128Z,6.00
2022-09-05T14:21:13.969Z,6.00
2022-09-05T14:23:53.561Z,5.95
2022-09-05T14:26:36.961Z,5.57
2022-09-05T14:29:15.787Z,5.93
2022-09-05T14:37:37.340Z,5.68
2022-09-05T14:38:00.995Z,5.65
2022-09-05T14:38:11.569Z,6.45
2022-09-05T14:41:28.278Z,6.40
2022-09-05T14:44:22.078Z,6.20
2022-09-05T14:47:32.295Z,6.00
2022-09-05T14:50:21.216Z,6.05
2022-09-05T14:56:51.578Z,5.50
2022-09-05T15:02:42.570Z,5.00
2022-09-05T15:02:54.063Z,5.40
2022-09-05T15:04:47.794Z,16.45
2022-09-05T15:07:19.594Z,14.52
2022-09-05T15:12:17.473Z,6.90
2022-09-05T15:12:49.474Z,5.30
2022-09-05T15:15:25.749Z,6.07
2022-09-05T15:17:58.528Z,6.40
2022-09-05T15:20:37.107Z,6.65
2022-09-05T15:23:16.074Z,6.20
2022-09-05T15:25:48.200Z,6.68
2022-09-05T15:28:21.868Z,5.93
2022-09-05T15:30:58.926Z,5.80
2022-09-05T15:33:30.762Z,6.07
2022-09-05T15:36:00.744Z,5.70
2022-09-05T15:38:37.110Z,5.75
2022-09-05T15:41:23.350Z,5.90
2022-09-05T15:43:58.287Z,6.18
2022-09-05T15:46:46.308Z,5.97
2022-09-05T15:49:27.127Z,5.70
2022-09-05T15:51:56.885Z,5.30
2022-09-05T15:54:37.892Z,5.32
2022-09-05T15:57:17.654Z,5.38
2022-09-05T15:59:49.318Z,5.40
2022-09-05T16:02:23.684Z,5.43
2022-09-05T16:07:59.904Z,12.85
2022-09-05T16:10:35.029Z,9.23
2022-09-05T16:11:37.019Z,9.40
2022-09-05T16:13:52.862Z,8.23
2022-09-05T16:19:38.967Z,9.25
2022-09-05T16:23:15.338Z,6.93
2022-09-05T16:23:24.109Z,5.88
2022-09-05T16:25:04.240Z,5.95
2022-09-05T16:27:52.862Z,5.85
2022-09-05T16:30:27.338Z,6.38
2022-09-05T16:33:00.003Z,5.22
2022-09-05T16:35:29.112Z,6.22
2022-09-05T16:38:08.301Z,6.10
2022-09-05T16:40:39.488Z,6.18
2022-09-05T16:43:11.355Z,6.35
2022-09-05T16:45:46.021Z,6.43
2022-09-05T16:48:35.211Z,6.25
2022-09-05T16:51:13.264Z,6.90
2022-09-05T16:53:58.239Z,6.32
2022-09-05T16:56:30.260Z,6.18
2022-09-05T16:59:02.071Z,5.70
2022-09-05T17:01:41.333Z,6.05
2022-09-05T17:04:15.856Z,6.00
2022-09-05T17:06:50.293Z,6.28
2022-09-05T17:09:25.689Z,6.93
2022-09-05T17:12:00.666Z,6.80
2022-09-05T17:14:35.489Z,6.80
2022-09-05T17:17:54.594Z,7.00
2022-09-05T17:20:07.093Z,7.30
2022-09-05T17:28:03.805Z,24.17
2022-09-05T17:29:30.405Z,60.77
2022-09-05T17:30:22.835Z,35.10
2022-09-05T17:31:53.368Z,10.80
2022-09-05T17:34:47.903Z,13.67
2022-09-05T17:37:59.481Z,12.77
2022-09-05T17:41:13.658Z,33.97
2022-09-05T17:43:42.934Z,12.83
2022-09-05T17:46:20.178Z,33.60
2022-09-05T17:49:19.528Z,56.17
2022-09-05T17:52:17.498Z,16.03
2022-09-05T17:54:49.830Z,13.33
2022-09-05T17:57:41.205Z,15.20
2022-09-05T18:00:43.641Z,40.07
2022-09-05T18:03:13.023Z,24.00
2022-09-05T18:06:01.094Z,12.73
2022-09-05T18:08:52.742Z,13.30
2022-09-05T18:12:04.650Z,16.30
2022-09-05T18:15:04.387Z,10.63
2022-09-05T18:18:02.623Z,8.83
2022-09-05T18:20:51.489Z,8.30
2022-09-05T18:23:54.804Z,8.53
2022-09-05T18:26:25.693Z,8.27
2022-09-05T18:29:03.955Z,7.97
2022-09-05T18:31:59.120Z,9.07
2022-09-05T18:34:47.403Z,9.13
2022-09-05T18:37:59.389Z,9.70
2022-09-05T18:40:45.898Z,10.17
2022-09-05T18:43:27.902Z,9.47
2022-09-05T18:46:01.102Z,9.37
2022-09-05T18:49:02.303Z,9.37
2022-09-05T18:51:49.077Z,9.43
2022-09-05T18:54:20.457Z,10.10
2022-09-05T18:57:16.784Z,10.13
2022-09-05T18:59:42.705Z,9.17
2022-09-05T19:02:32.147Z,9.73
2022-09-05T19:05:16.172Z,7.50
2022-09-05T19:07:48.264Z,6.83
2022-09-05T19:10:35.104Z,5.93
2022-09-05T19:13:15.578Z,6.80
2022-09-05T19:15:48.365Z,6.40
2022-09-05T19:18:37.063Z,6.30
2022-09-05T19:21:11.819Z,7.30
2022-09-05T19:23:52.820Z,7.63
2022-09-05T19:26:22.207Z,7.63
2022-09-05T19:36:51.437Z,8.17
2022-09-05T19:36:53.902Z,7.10
2022-09-05T19:36:59.060Z,7.63
2022-09-05T19:37:39.681Z,9.10
2022-09-05T19:47:27.435Z,8.10
2022-09-05T19:47:43.281Z,7.60
2022-09-05T19:47:48.545Z,7.77
2022-09-05T19:49:21.066Z,8.93
2022-09-05T19:51:50.532Z,7.60
2022-09-05T19:54:26.821Z,7.57
2022-09-05T19:56:59.545Z,7.50
2022-09-05T19:59:34.490Z,6.90
2022-09-05T20:02:03.922Z,7.13
2022-09-05T20:04:38.020Z,7.43
2022-09-05T20:07:15.735Z,6.73
2022-09-05T20:09:47.060Z,7.77
2022-09-05T20:12:23.959Z,8.87
2022-09-05T20:14:53.191Z,6.90
2022-09-05T20:17:24.786Z,6.50
2022-09-05T20:20:09.407Z,6.70
2022-09-05T20:22:49.155Z,6.63
2022-09-05T20:25:36.222Z,6.97
2022-09-05T20:28:09.981Z,6.60
2022-09-05T20:30:43.740Z,7.00
2022-09-05T20:33:18.767Z,6.50
2022-09-05T20:43:11.041Z,7.90
2022-09-05T20:43:12.031Z,6.90
2022-09-05T20:43:17.746Z,6.80
2022-09-05T20:44:25.073Z,6.80
2022-09-05T20:48:58.830Z,7.13
2022-09-05T20:54:07.603Z,7.00
2022-09-05T20:54:15.713Z,6.70
2022-09-05T20:55:41.381Z,7.37
2022-09-05T20:58:12.459Z,7.03
2022-09-05T21:01:20.611Z,7.93
2022-09-05T21:03:36.778Z,7.00
2022-09-05T21:06:22.710Z,7.43
2022-09-05T21:08:55.977Z,7.90
2022-09-05T21:11:32.907Z,8.10
2022-09-05T21:14:04.445Z,7.23
2022-09-05T21:16:36.744Z,7.20
2022-09-05T21:19:07.796Z,6.80
2022-09-05T21:21:36.530Z,6.90
2022-09-05T21:24:24.244Z,6.80
2022-09-05T21:26:53.054Z,6.97
2022-09-05T21:29:32.781Z,7.30
2022-09-05T21:32:03.933Z,6.93
2022-09-05T21:34:44.745Z,6.63
2022-09-05T21:37:15.226Z,8.50
2022-09-05T21:39:59.054Z,6.70
2022-09-05T21:46:14.243Z,6.70
2022-09-05T21:47:46.807Z,7.37
2022-09-05T21:48:11.782Z,7.37
2022-09-05T21:50:42.835Z,7.13
2022-09-05T21:54:36.550Z,8.07
2022-09-05T21:59:18.137Z,7.77
2022-09-05T21:59:27.729Z,7.40
2022-09-05T22:01:52.290Z,8.47
2022-09-05T22:04:21.931Z,7.80
2022-09-05T22:06:53.179Z,7.30
2022-09-05T22:09:22.488Z,7.57
2022-09-05T22:11:52.743Z,6.90
2022-09-05T22:14:22.263Z,7.30
2022-09-05T22:16:52.340Z,7.33
2022-09-05T22:19:26.264Z,7.00
2022-09-05T22:22:07.397Z,7.20
2022-09-05T22:24:36.743Z,7.00
2022-09-05T22:27:12.374Z,7.03
2022-09-05T22:29:41.880Z,7.70
2022-09-05T22:32:10.644Z,6.60
2022-09-05T22:34:39.291Z,6.73
2022-09-05T22:37:08.006Z,6.50
2022-09-05T22:39:38.152Z,7.67
2022-09-05T22:42:10.652Z,6.67
2022-09-05T22:44:40.182Z,7.93
2022-09-05T22:47:09.163Z,6.90
2022-09-05T22:49:38.121Z,7.07
2022-09-05T22:52:07.573Z,7.20
2022-09-05T22:54:36.619Z,7.33
2022-09-05T22:57:05.639Z,7.20
2022-09-05T22:59:35.669Z,7.23
2022-09-05T23:02:04.418Z,7.67
2022-09-05T23:04:33.218Z,7.57
2022-09-05T23:07:03.215Z,6.97
2022-09-05T23:09:31.796Z,6.60
2022-09-05T23:12:00.339Z,7.80
2022-09-05T23:14:28.921Z,7.63
2022-09-05T23:16:58.870Z,8.13
2022-09-05T23:19:27.382Z,7.07
2022-09-05T23:21:55.986Z,7.97
2022-09-05T23:24:24.981Z,7.50
2022-09-05T23:26:53.558Z,7.33
2022-09-05T23:29:22.322Z,7.10
2022-09-05T23:31:51.006Z,6.93
2022-09-05T23:34:21.056Z,7.33
2022-09-05T23:36:49.566Z,7.90
2022-09-05T23:39:18.178Z,7.30
2022-09-05T23:41:46.834Z,8.07
2022-09-05T23:44:15.462Z,8.00
2022-09-05T23:46:44.279Z,8.67
2022-09-05T23:49:12.851Z,7.03
2022-09-05T23:51:42.887Z,6.90
2022-09-05T23:54:11.522Z,7.60
2022-09-05T23:56:40.180Z,7.67
2022-09-05T23:59:08.838Z,7.73
